EGLC/LCY METAR and TAF weather

Enter ICAO airport designator
Station Type Date Time Source
EGLC METAR 2018/07/20 14:20 UTC NOAA

EGLC 201420Z AUTO 15007KT 120V190 9999 NCD 23/15 Q1014


Station Type Date Time Source
EGLC Decoded METAR 2018/07/20 14:20 UTC NOAA

London City Airport, United Kingdom (EGLC) 51-30N 000-30W
Jul 20, 2018 - 10:20 AM EDT / 2018.07.20 1420 UTC
Wind: from the SSE (150 degrees) at 8 MPH (7 KT) (direction variable):0
Visibility: greater than 7 mile(s):0
Temperature: 73 F (23 C)
Dew Point: 59 F (15 C)
Relative Humidity: 60%
Pressure (altimeter): 29.94 in. Hg (1014 hPa)
ob: EGLC 201420Z AUTO 15007KT 120V190 9999 NCD 23/15 Q1014
cycle: 14

Station Type Date Time Source
EGLC TAF 2016/03/02 12:00 UTC NOAA

TAF EGLC 021104Z 0212/0221 25015G25KT 9999 SCT020
TEMPO 0212/0216 25025G38KT 5000 SHRA BKN012CB PROB30
TEMPO 0212/0215 2500 +SHGS +SHRASN
TEMPO 0216/0221 29025G35KT
TEMPO 0219/0221 BKN012


Example: see airport list